Time;durP1;ratioP1;P1;durP2;ratioP2;P2;SDS_P1;SDS_P2;PMS_P1;PMS_P2;Temp;Humidity;BMP_temperature;BMP_pressure;BME280_temperature;BME280_humidity;BME280_pressure;Samples;Min_cycle;Max_cycle;Signal;HPM_P1;HPM_P2
2022/11/07 00:01:40;;;;;;;;;6.67;2.00;;;;;12.69;80.88;100848.31;5057273;28;45386;-45
2022/11/07 00:04:05;;;;;;;;;8.00;3.00;;;;;12.69;81.30;100850.16;5057423;28;45634;-48
2022/11/07 00:06:31;;;;;;;;;4.00;4.00;;;;;12.67;80.96;100849.47;5056160;28;45407;-45
2022/11/07 00:08:57;;;;;;;;;4.67;1.67;;;;;12.68;81.60;100856.47;5056860;28;46119;-46
2022/11/07 00:11:22;;;;;;;;;10.00;7.00;;;;;12.67;81.45;100855.63;5057218;28;45424;-46
2022/11/07 00:13:48;;;;;;;;;4.00;2.00;;;;;12.70;81.39;100855.34;5057336;28;45315;-49
2022/11/07 00:16:13;;;;;;;;;8.00;3.33;;;;;12.70;81.13;100852.66;5057322;28;45592;-45
2022/11/07 00:18:39;;;;;;;;;6.67;3.00;;;;;12.62;81.33;100851.78;5057223;28;46537;-47
2022/11/07 00:21:07;;;;;;;;;7.67;2.00;;;;;12.72;81.63;100860.50;5057087;28;45382;-47
2022/11/07 00:23:33;;;;;;;;;3.33;2.33;;;;;12.76;81.29;100869.03;5057430;28;45577;-45
2022/11/07 00:26:07;;;;;;;;;5.33;2.00;;;;;12.74;81.21;100872.72;5057213;28;45237;-46
2022/11/07 00:28:33;;;;;;;;;4.33;3.00;;;;;12.76;81.45;100853.84;5056900;28;46316;-45
2022/11/07 00:30:59;;;;;;;;;3.00;3.00;;;;;12.76;81.47;100859.19;5056591;28;45542;-49
2022/11/07 00:33:24;;;;;;;;;4.67;3.00;;;;;12.80;81.46;100873.91;5057230;28;45331;-48
2022/11/07 00:35:49;;;;;;;;;4.00;2.00;;;;;12.80;81.14;100865.88;5057302;28;45316;-47
2022/11/07 00:38:15;;;;;;;;;3.33;2.00;;;;;12.80;80.65;100868.56;5056802;28;46318;-45
2022/11/07 00:40:41;;;;;;;;;4.67;2.33;;;;;12.66;81.01;100856.63;5056823;28;45279;-49
2022/11/07 00:43:06;;;;;;;;;8.33;2.67;;;;;12.80;81.03;100873.06;5056808;28;45461;-47
2022/11/07 00:45:32;;;;;;;;;5.33;3.00;;;;;12.82;81.02;100874.59;5057042;28;45356;-43
2022/11/07 00:47:57;;;;;;;;;5.33;2.00;;;;;12.83;81.24;100867.41;5056377;28;45556;-49
2022/11/07 00:50:22;;;;;;;;;1.00;1.00;;;;;12.85;81.24;100873.41;5056531;28;45379;-48
2022/11/07 00:52:48;;;;;;;;;7.33;2.33;;;;;12.83;81.25;100876.25;5056971;28;45426;-46
2022/11/07 00:55:13;;;;;;;;;3.67;2.00;;;;;12.83;80.87;100854.06;5057038;28;45374;-48
2022/11/07 00:57:38;;;;;;;;;3.67;0.33;;;;;12.84;80.96;100861.06;5056730;28;45427;-50
2022/11/07 01:00:04;;;;;;;;;4.67;2.33;;;;;12.84;80.86;100871.75;5056731;28;45351;-46
2022/11/07 01:02:30;;;;;;;;;3.33;2.00;;;;;12.85;80.87;100865.41;5055168;28;45286;-47
2022/11/07 01:05:10;;;;;;;;;2.67;1.33;;;;;12.84;80.83;100864.56;5060001;28;45477;-43
2022/11/07 01:07:37;;;;;;;;;5.33;3.00;;;;;12.85;81.20;100858.28;5059774;28;46403;-48
2022/11/07 01:10:05;;;;;;;;;3.00;1.67;;;;;12.85;80.84;100857.41;5060008;28;45315;-47
2022/11/07 01:12:32;;;;;;;;;2.33;1.67;;;;;12.81;80.82;100856.91;5059986;28;45255;-49
2022/11/07 01:14:58;;;;;;;;;4.00;1.67;;;;;12.84;80.83;100861.06;5060239;28;45488;-49
2022/11/07 01:17:23;;;;;;;;;4.33;1.00;;;;;12.83;80.73;100859.41;5059663;28;46014;-50
2022/11/07 01:19:48;;;;;;;;;5.67;4.00;;;;;12.81;80.85;100864.91;5059995;28;45256;-47
2022/11/07 01:22:14;;;;;;;;;5.00;2.00;;;;;12.84;81.08;100864.56;5059981;28;45702;-47
2022/11/07 01:24:39;;;;;;;;;2.67;2.00;;;;;12.83;80.62;100868.25;5060273;28;45464;-49
2022/11/07 01:27:04;;;;;;;;;5.33;2.67;;;;;12.83;80.78;100872.75;5059595;28;47026;-49
2022/11/07 01:29:30;;;;;;;;;4.00;4.00;;;;;12.83;80.64;100870.91;5059741;28;45269;-45
2022/11/07 01:31:55;;;;;;;;;7.00;3.00;;;;;12.84;80.69;100869.09;5059858;28;45492;-46
2022/11/07 01:34:20;;;;;;;;;4.00;1.67;;;;;12.85;80.69;100873.41;5059981;28;45316;-51
2022/11/07 01:36:46;;;;;;;;;4.00;2.67;;;;;12.85;80.80;100876.09;5059677;28;46921;-45
2022/11/07 01:39:11;;;;;;;;;10.33;3.00;;;;;12.85;81.06;100882.28;5059580;28;45446;-46
2022/11/07 01:41:37;;;;;;;;;3.67;1.67;;;;;12.85;80.68;100884.09;5059785;28;45860;-47
2022/11/07 01:44:06;;;;;;;;;2.00;2.00;;;;;12.85;80.73;100879.63;5059835;28;45346;-46
2022/11/07 01:46:31;;;;;;;;;3.00;2.67;;;;;12.86;80.73;100888.47;5058960;28;47075;-48
2022/11/07 01:49:09;;;;;;;;;7.67;2.00;;;;;12.86;80.43;100896.47;5059565;28;45382;-47
2022/11/07 01:51:54;;;;;;;;;5.00;3.00;;;;;12.86;80.41;100886.63;5059700;28;45345;-46
2022/11/07 01:54:25;;;;;;;;;3.67;2.00;;;;;12.88;80.50;100886.47;5059561;28;45417;-47
2022/11/07 01:56:55;;;;;;;;;4.67;4.67;;;;;12.85;80.48;100886.78;5058997;28;46361;-43
2022/11/07 01:59:25;;;;;;;;;8.00;2.00;;;;;12.91;80.79;100888.81;5059185;28;45498;-42
2022/11/07 02:01:52;;;;;;;;;2.67;2.00;;;;;12.89;80.37;100880.97;5059622;28;45450;-41
2022/11/07 02:04:22;;;;;;;;;5.33;3.33;;;;;12.90;80.82;100881.81;5059621;28;45368;-49
2022/11/07 02:06:54;;;;;;;;;1.33;1.33;;;;;12.91;81.13;100878.16;5059084;28;46130;-42
2022/11/07 02:09:20;;;;;;;;;2.00;1.00;;;;;12.90;80.79;100887.16;5059096;28;45404;-47
2022/11/07 02:11:45;;;;;;;;;3.00;1.00;;;;;12.91;80.33;100881.66;5059192;28;45460;-42
2022/11/07 02:14:15;;;;;;;;;3.00;2.00;;;;;12.91;80.58;100875.47;5059315;28;45249;-46
2022/11/07 02:16:40;;;;;;;;;5.67;3.00;;;;;12.89;80.46;100877.44;5058880;28;45572;-49
2022/11/07 02:19:15;;;;;;;;;8.00;3.00;;;;;12.92;80.43;100883.31;5058698;28;45247;-45
2022/11/07 02:21:50;;;;;;;;;2.67;2.33;;;;;12.91;80.63;100878.16;5059094;28;45253;-42
2022/11/07 02:24:23;;;;;;;;;2.67;2.67;;;;;12.92;80.38;100871.81;5059264;28;45391;-42
2022/11/07 02:26:51;;;;;;;;;4.00;1.00;;;;;12.84;80.55;100859.25;5058137;28;46351;-42
2022/11/07 02:29:18;;;;;;;;;2.33;1.00;;;;;12.91;80.57;100868.28;5058523;28;45354;-42
2022/11/07 02:31:43;;;;;;;;;5.33;3.00;;;;;12.93;80.18;100881.47;5058731;28;45444;-49
2022/11/07 02:34:09;;;;;;;;;3.67;1.00;;;;;12.93;80.71;100876.97;5058969;28;45209;-44
2022/11/07 02:36:34;;;;;;;;;2.00;2.00;;;;;12.93;80.60;100874.31;5058742;28;45994;-47
2022/11/07 02:39:00;;;;;;;;;3.00;0.00;;;;;12.92;80.05;100879.81;5058630;28;45326;-43
2022/11/07 02:41:33;;;;;;;;;4.00;2.00;;;;;12.87;80.25;100869.59;5058629;28;45453;-43
2022/11/07 02:44:03;;;;;;;;;5.33;2.00;;;;;12.92;80.12;100877.97;5057640;28;45597;-47
2022/11/07 02:46:30;;;;;;;;;4.00;1.00;;;;;12.93;80.58;100874.31;5058068;28;46287;-42
2022/11/07 02:48:58;;;;;;;;;3.33;2.00;;;;;12.93;80.70;100873.47;5058112;28;45332;-44
2022/11/07 02:51:24;;;;;;;;;5.00;1.67;;;;;12.92;80.53;100869.97;5058506;28;45258;-47
2022/11/07 02:53:50;;;;;;;;;5.33;2.33;;;;;12.94;80.34;100864.50;5058796;28;45486;-42
2022/11/07 02:56:15;;;;;;;;;8.00;3.00;;;;;12.94;80.50;100868.00;5058223;28;45504;-44
2022/11/07 02:58:41;;;;;;;;;6.33;3.00;;;;;12.95;80.12;100875.00;5058394;28;45544;-44
2022/11/07 03:01:06;;;;;;;;;9.00;2.67;;;;;12.92;80.28;100864.63;5058487;28;45339;-44
2022/11/07 03:03:33;;;;;;;;;3.00;2.67;;;;;12.86;80.12;100837.75;5058493;28;45332;-50
2022/11/07 03:05:59;;;;;;;;;4.33;1.00;;;;;12.94;79.99;100859.97;5058059;28;46236;-42
2022/11/07 03:08:24;;;;;;;;;2.67;2.00;;;;;12.95;80.24;100866.16;5058035;28;45450;-44
2022/11/07 03:10:50;;;;;;;;;2.00;1.00;;;;;12.94;80.24;100862.66;5058344;28;45323;-42
2022/11/07 03:13:15;;;;;;;;;7.67;2.00;;;;;12.94;80.20;100862.66;5058363;28;45323;-41
2022/11/07 03:15:40;;;;;;;;;3.33;2.67;;;;;12.94;80.00;100859.16;5057814;28;47237;-48
2022/11/07 03:18:09;;;;;;;;;6.00;1.00;;;;;12.93;80.08;100878.81;5057882;28;45441;-49
2022/11/07 03:20:34;;;;;;;;;7.00;1.00;;;;;12.94;79.86;100877.84;5058144;28;45340;-44
2022/11/07 03:22:59;;;;;;;;;5.00;1.67;;;;;12.91;79.78;100864.78;5057055;28;45470;-42
2022/11/07 03:25:25;;;;;;;;;2.00;1.00;;;;;12.93;80.00;100876.13;5057416;28;46018;-42
2022/11/07 03:27:50;;;;;;;;;2.00;2.00;;;;;12.92;80.15;100877.13;5057329;28;45285;-47
2022/11/07 03:30:16;;;;;;;;;2.00;0.33;;;;;12.86;80.23;100862.59;5057921;28;45457;-48
2022/11/07 03:32:41;;;;;;;;;2.67;2.67;;;;;12.92;79.63;100880.66;5058054;28;45411;-42
2022/11/07 03:35:08;;;;;;;;;3.33;2.00;;;;;12.95;79.73;100888.34;5057592;28;46213;-42
2022/11/07 03:37:33;;;;;;;;;6.33;3.00;;;;;12.94;79.87;100876.00;5057486;28;45518;-41
2022/11/07 03:39:58;;;;;;;;;7.33;2.00;;;;;12.96;79.78;100884.66;5057781;28;45365;-41
2022/11/07 03:42:24;;;;;;;;;7.33;2.00;;;;;12.95;80.26;100884.84;5057971;28;45380;-47
2022/11/07 03:44:49;;;;;;;;;4.67;3.00;;;;;12.97;79.96;100880.16;5057898;28;46017;-41
2022/11/07 03:47:14;;;;;;;;;2.00;1.00;;;;;12.98;80.11;100889.88;5056799;28;45351;-42
2022/11/07 03:49:40;;;;;;;;;3.00;2.33;;;;;12.98;79.75;100873.84;5057764;28;45303;-46
2022/11/07 03:52:05;;;;;;;;;3.00;0.67;;;;;12.94;79.93;100867.16;5058170;28;45315;-41
2022/11/07 03:54:30;;;;;;;;;4.00;2.00;;;;;13.01;79.91;100870.84;5057675;28;45338;-46
2022/11/07 03:56:56;;;;;;;;;1.33;1.33;;;;;13.02;79.73;100875.22;5058027;28;45248;-41
2022/11/07 03:59:21;;;;;;;;;5.33;2.00;;;;;13.00;80.11;100861.16;5057510;28;45173;-43
2022/11/07 04:01:46;;;;;;;;;2.00;1.33;;;;;13.00;79.93;100861.16;5057917;28;45379;-44
2022/11/07 04:04:12;;;;;;;;;1.00;1.00;;;;;12.91;79.88;100844.28;5057213;28;47284;-45
2022/11/07 04:06:37;;;;;;;;;2.00;2.00;;;;;13.00;79.99;100866.50;5056837;28;45359;-44
2022/11/07 04:09:03;;;;;;;;;6.67;3.00;;;;;13.01;80.49;100872.69;5056352;28;45708;-42
2022/11/07 04:19:40;;;;;;;;;5.00;2.00;;;;;13.01;79.98;100859.31;5056964;28;45369;-45
2022/11/07 04:22:06;;;;;;;;;2.33;2.33;;;;;12.99;80.04;100854.16;5057285;28;45367;-46
2022/11/07 04:24:31;;;;;;;;;6.00;2.00;;;;;12.97;80.35;100853.47;5056982;28;46088;-44
2022/11/07 04:29:40;;;;;;;;;8.33;2.33;;;;;13.05;80.11;100853.50;5057213;28;45454;-49
2022/11/07 04:32:06;;;;;;;;;5.33;2.00;;;;;13.04;80.28;100857.19;5057181;28;45269;-45
2022/11/07 04:34:31;;;;;;;;;4.00;1.67;;;;;13.06;80.15;100868.56;5056750;28;46088;-47
2022/11/07 04:36:56;;;;;;;;;8.33;1.67;;;;;13.06;80.28;100865.88;5056898;28;45307;-44
2022/11/07 04:39:22;;;;;;;;;4.33;1.33;;;;;13.05;79.75;100868.69;5057015;28;45359;-45
2022/11/07 04:41:47;;;;;;;;;3.00;2.00;;;;;13.05;80.39;100864.19;5057340;28;45418;-45
2022/11/07 04:44:12;;;;;;;;;4.00;1.33;;;;;13.07;79.99;100872.88;5056659;28;46409;-48
2022/11/07 04:46:38;;;;;;;;;6.33;2.33;;;;;13.09;80.40;100878.06;5056455;28;45191;-45
2022/11/07 04:49:03;;;;;;;;;2.00;2.00;;;;;13.07;80.06;100858.72;5056787;28;45213;-48
2022/11/07 04:51:29;;;;;;;;;4.00;2.00;;;;;13.06;80.15;100860.53;5056960;28;45394;-47
2022/11/07 04:53:54;;;;;;;;;4.33;4.33;;;;;13.08;80.05;100874.56;5056543;28;46355;-47
2022/11/07 04:56:19;;;;;;;;;2.33;2.00;;;;;13.09;80.55;100876.22;5056704;28;45337;-47
2022/11/07 04:58:45;;;;;;;;;6.33;4.00;;;;;13.09;80.42;100870.88;5056678;28;45264;-50
2022/11/07 05:01:10;;;;;;;;;5.67;3.00;;;;;13.10;80.80;100871.72;5057057;28;45338;-48
2022/11/07 05:03:35;;;;;;;;;5.33;2.00;;;;;13.10;80.58;100871.72;5056251;28;47195;-47
2022/11/07 05:06:03;;;;;;;;;6.33;4.00;;;;;13.12;80.24;100875.09;5056459;28;45306;-44
2022/11/07 05:08:29;;;;;;;;;2.33;1.00;;;;;13.08;80.74;100861.19;5056594;28;45332;-41
2022/11/07 05:10:54;;;;;;;;;2.00;2.00;;;;;13.11;80.29;100860.91;5056705;28;45387;-45
2022/11/07 05:13:20;;;;;;;;;2.67;2.00;;;;;13.14;80.84;100865.88;5056277;28;46187;-49
2022/11/07 05:15:45;;;;;;;;;5.00;2.67;;;;;13.16;80.78;100855.06;5056309;28;45257;-41
2022/11/07 05:18:11;;;;;;;;;6.67;3.33;;;;;13.14;80.70;100852.53;5056497;28;45312;-49
2022/11/07 05:20:38;;;;;;;;;7.00;2.00;;;;;13.13;80.08;100850.88;5056710;28;45308;-45
2022/11/07 05:23:11;;;;;;;;;6.00;1.00;;;;;13.16;80.66;100860.41;5056093;28;47254;-47
2022/11/07 05:25:40;;;;;;;;;5.33;3.00;;;;;13.14;80.47;100852.53;5056246;28;45429;-47
2022/11/07 05:28:07;;;;;;;;;4.67;2.00;;;;;13.16;80.88;100873.75;5056414;28;45434;-47
2022/11/07 05:30:32;;;;;;;;;10.33;5.33;;;;;13.16;80.96;100876.44;5056321;28;45334;-43
2022/11/07 05:32:57;;;;;;;;;5.67;1.33;;;;;13.18;80.75;100872.59;5055880;28;46440;-46
2022/11/07 05:35:23;;;;;;;;;2.33;2.00;;;;;13.20;80.51;100900.00;5056187;28;45316;-44
2022/11/07 05:37:48;;;;;;;;;2.00;2.00;;;;;13.18;80.72;100871.75;5056262;28;45440;-48
2022/11/07 05:40:13;;;;;;;;;2.00;1.33;;;;;13.19;80.40;100871.63;5056337;28;45514;-50
2022/11/07 05:42:39;;;;;;;;;7.00;2.00;;;;;13.21;80.89;100885.63;5055962;28;47125;-44
2022/11/07 05:45:05;;;;;;;;;2.67;2.00;;;;;13.23;80.46;100889.03;5056053;28;45324;-44
2022/11/07 05:47:30;;;;;;;;;4.67;4.00;;;;;13.23;80.88;100888.16;5054653;28;45456;-46
2022/11/07 05:49:56;;;;;;;;;8.00;2.00;;;;;13.25;80.49;100899.53;5055038;28;45542;-51
2022/11/07 05:52:21;;;;;;;;;8.67;2.00;;;;;13.28;80.69;100901.06;5058562;28;45290;-45
2022/11/07 05:54:46;;;;;;;;;5.00;2.33;;;;;13.29;80.79;100902.72;5058984;28;45392;-46
2022/11/07 05:57:12;;;;;;;;;2.67;2.00;;;;;13.32;80.81;100907.75;5059637;28;45313;-42
2022/11/07 05:59:37;;;;;;;;;3.00;2.00;;;;;13.34;79.97;100901.25;5058523;28;45279;-48
2022/11/07 06:02:02;;;;;;;;;2.00;2.00;;;;;13.36;80.20;100911.78;5057985;28;45381;-47
2022/11/07 06:04:28;;;;;;;;;7.00;1.00;;;;;13.36;79.73;100904.63;5058733;28;45407;-44
2022/11/07 06:06:53;;;;;;;;;2.67;2.00;;;;;13.35;79.94;100907.41;5058822;28;45344;-42
2022/11/07 06:09:18;;;;;;;;;3.33;1.33;;;;;13.39;79.98;100909.59;5059271;28;45341;-50
2022/11/07 06:11:44;;;;;;;;;3.67;2.00;;;;;13.42;79.63;100911.13;5058697;28;46097;-47
2022/11/07 06:14:09;;;;;;;;;2.00;2.00;;;;;13.41;79.81;100904.97;5059119;28;45429;-47
2022/11/07 06:16:34;;;;;;;;;4.00;1.33;;;;;13.44;79.46;100911.78;5059033;28;45279;-43
2022/11/07 06:19:01;;;;;;;;;3.00;3.00;;;;;13.44;79.76;100912.66;5059043;28;45523;-41
2022/11/07 06:21:26;;;;;;;;;1.33;1.00;;;;;13.46;79.55;100912.50;5058331;28;45397;-49
2022/11/07 06:23:51;;;;;;;;;4.00;1.67;;;;;13.51;79.42;100914.69;5058685;28;45387;-48
2022/11/07 06:26:16;;;;;;;;;2.00;2.00;;;;;13.50;79.61;100916.50;5058744;28;45328;-47
2022/11/07 06:28:42;;;;;;;;;3.00;2.00;;;;;13.52;79.52;100916.34;5059106;28;45335;-46
2022/11/07 06:31:08;;;;;;;;;5.67;2.33;;;;;13.53;79.25;100920.72;5058621;28;46164;-47
2022/11/07 06:33:34;;;;;;;;;1.00;1.00;;;;;13.54;79.52;100925.88;5058619;28;45430;-42
2022/11/07 06:36:05;;;;;;;;;3.00;3.00;;;;;13.54;79.33;100928.56;5058731;28;45629;-47
2022/11/07 06:38:30;;;;;;;;;3.33;3.33;;;;;13.57;79.46;100935.41;5058891;28;45500;-51
2022/11/07 06:41:03;;;;;;;;;6.33;3.00;;;;;13.60;79.38;100943.09;5058620;28;46041;-48
2022/11/07 06:43:28;;;;;;;;;1.67;1.67;;;;;13.60;79.40;100943.09;5058796;28;45158;-46
2022/11/07 06:45:53;;;;;;;;;3.00;2.33;;;;;13.60;79.42;100933.25;5058674;28;45377;-48
2022/11/07 06:48:18;;;;;;;;;1.67;1.00;;;;;13.62;79.14;100933.09;5058729;28;45471;-46
2022/11/07 06:50:44;;;;;;;;;5.67;2.00;;;;;13.59;79.36;100918.22;5058374;28;46104;-44
2022/11/07 06:53:11;;;;;;;;;1.00;1.00;;;;;13.61;79.34;100928.72;5058755;28;45244;-46
2022/11/07 06:55:37;;;;;;;;;11.33;3.00;;;;;13.61;79.56;100934.94;5058804;28;45328;-46
2022/11/07 06:58:03;;;;;;;;;1.33;1.33;;;;;13.62;79.28;100939.28;5057401;28;45241;-44
2022/11/07 07:00:31;;;;;;;;;6.00;2.00;;;;;13.64;79.55;100950.63;5057392;28;46327;-46
2022/11/07 07:02:57;;;;;;;;;3.67;3.67;;;;;13.59;79.55;100930.75;5057882;28;45204;-46
2022/11/07 07:05:22;;;;;;;;;7.00;3.00;;;;;13.64;79.56;100942.63;5058467;28;45450;-44
2022/11/07 07:07:48;;;;;;;;;3.67;2.00;;;;;13.65;79.10;100941.63;5058407;28;45330;-47
2022/11/07 07:10:14;;;;;;;;;3.00;3.00;;;;;13.65;79.25;100946.97;5058046;28;46264;-46
2022/11/07 07:12:39;;;;;;;;;4.67;3.00;;;;;13.65;79.26;100941.63;5058133;28;45216;-49
2022/11/07 07:15:05;;;;;;;;;1.00;1.00;;;;;13.64;79.33;100936.44;5058169;28;45361;-47
2022/11/07 07:17:31;;;;;;;;;2.67;1.00;;;;;13.64;79.33;100949.78;5058479;28;45493;-44
2022/11/07 07:19:57;;;;;;;;;3.33;2.00;;;;;13.66;79.76;100940.63;5057878;28;46673;-44
2022/11/07 07:22:22;;;;;;;;;2.00;2.00;;;;;13.68;79.49;100937.78;5058065;28;45369;-48
2022/11/07 07:24:50;;;;;;;;;2.67;2.33;;;;;13.65;79.27;100949.66;5058218;28;45398;-46
2022/11/07 07:27:15;;;;;;;;;4.33;4.00;;;;;13.65;79.47;100941.63;5058276;28;45768;-43
2022/11/07 07:29:41;;;;;;;;;4.33;3.67;;;;;13.71;79.18;100951.66;5057982;28;46072;-48
2022/11/07 07:32:06;;;;;;;;;4.00;2.00;;;;;13.75;79.48;100962.06;5057808;28;45327;-45
2022/11/07 07:34:31;;;;;;;;;2.00;2.00;;;;;13.72;79.50;100958.69;5057929;28;45303;-45
2022/11/07 07:36:57;;;;;;;;;3.00;1.00;;;;;13.75;79.51;100954.03;5058197;28;45298;-48
2022/11/07 07:39:23;;;;;;;;;5.00;2.00;;;;;13.77;79.47;100960.88;5057810;28;46172;-43
2022/11/07 07:41:49;;;;;;;;;2.33;2.33;;;;;13.80;79.58;100954.38;5058042;28;45185;-49
2022/11/07 07:44:15;;;;;;;;;1.00;1.00;;;;;13.81;79.48;100961.38;5057981;28;45410;-50
2022/11/07 07:46:40;;;;;;;;;10.00;5.33;;;;;13.85;79.48;100968.09;5057889;28;45464;-45
2022/11/07 07:49:07;;;;;;;;;3.33;2.00;;;;;13.86;78.93;100961.72;5057473;28;46091;-44
2022/11/07 07:51:32;;;;;;;;;6.33;2.00;;;;;13.86;79.43;100959.06;5057631;28;45434;-46
2022/11/07 07:53:58;;;;;;;;;2.00;2.00;;;;;13.89;79.04;100961.41;5057889;28;45378;-50
2022/11/07 07:56:23;;;;;;;;;2.67;2.67;;;;;13.89;79.34;100956.06;5057890;28;45383;-50
2022/11/07 07:58:49;;;;;;;;;6.00;3.67;;;;;13.93;79.31;100965.44;5057443;28;46999;-46
2022/11/07 08:01:14;;;;;;;;;3.67;2.00;;;;;13.93;79.35;100952.06;5057422;28;45335;-45
2022/11/07 08:03:39;;;;;;;;;8.67;3.00;;;;;13.92;79.35;100963.78;5056271;28;45632;-47
2022/11/07 08:06:05;;;;;;;;;4.33;2.00;;;;;13.97;79.24;100964.09;5057674;28;45497;-49
2022/11/07 08:08:31;;;;;;;;;4.00;1.00;;;;;13.98;79.20;100971.97;5057106;28;47912;-49
2022/11/07 08:11:04;;;;;;;;;7.33;3.00;;;;;14.00;79.16;100973.66;5057317;28;45363;-49
2022/11/07 08:13:29;;;;;;;;;8.00;5.33;;;;;14.02;79.60;100969.81;5056943;28;45245;-50
2022/11/07 08:15:55;;;;;;;;;3.00;3.00;;;;;14.06;79.41;100983.69;5057543;28;45327;-46
2022/11/07 08:18:21;;;;;;;;;3.00;2.67;;;;;14.08;79.56;100981.69;5057326;28;46254;-49
2022/11/07 08:20:51;;;;;;;;;5.33;3.00;;;;;14.11;79.23;100978.69;5057193;28;45282;-48
2022/11/07 08:23:17;;;;;;;;;4.00;3.00;;;;;14.11;79.38;100976.00;5057201;28;45454;-45
2022/11/07 08:25:52;;;;;;;;;3.00;2.67;;;;;14.13;79.06;100982.88;5057533;28;45319;-51
2022/11/07 08:28:18;;;;;;;;;7.67;1.33;;;;;14.17;79.08;100994.09;5056945;28;45359;-50
2022/11/07 08:30:43;;;;;;;;;9.00;4.00;;;;;14.17;79.01;100989.56;5057015;28;45329;-50
2022/11/07 08:33:08;;;;;;;;;2.00;1.00;;;;;14.19;79.17;100998.25;5057241;28;45327;-50
2022/11/07 08:35:34;;;;;;;;;2.00;0.67;;;;;14.22;79.31;100995.25;5057282;28;45441;-49
2022/11/07 08:37:59;;;;;;;;;6.00;2.33;;;;;14.21;78.53;100980.22;5056899;28;46810;-51
2022/11/07 08:40:25;;;;;;;;;5.67;3.33;;;;;14.27;78.60;100985.91;5057042;28;45481;-50
2022/11/07 08:42:51;;;;;;;;;2.00;2.00;;;;;14.30;78.36;100986.41;5056895;28;45453;-47
2022/11/07 08:45:16;;;;;;;;;3.33;2.00;;;;;14.36;78.32;100984.91;5057281;28;45186;-49
2022/11/07 08:47:42;;;;;;;;;6.33;3.67;;;;;14.45;77.93;100990.13;5056640;28;45679;-48
2022/11/07 08:50:07;;;;;;;;;3.00;1.00;;;;;14.49;78.12;100979.94;5056584;28;45232;-49
2022/11/07 08:52:36;;;;;;;;;2.33;2.33;;;;;14.59;77.67;100990.50;5056886;28;45355;-50
2022/11/07 08:55:03;;;;;;;;;6.00;2.67;;;;;14.59;77.39;100988.66;5057050;28;45600;-46
2022/11/07 08:57:28;;;;;;;;;6.33;1.67;;;;;14.66;77.41;100995.03;5056749;28;45401;-50
2022/11/07 08:59:54;;;;;;;;;1.00;1.00;;;;;14.68;77.17;100992.16;5056776;28;45375;-48
2022/11/07 09:02:19;;;;;;;;;4.33;3.67;;;;;14.69;77.20;100991.16;5055378;28;45526;-50
2022/11/07 09:04:45;;;;;;;;;2.00;1.00;;;;;14.67;77.11;100991.34;5056847;28;45373;-48
2022/11/07 09:07:10;;;;;;;;;3.50;1.00;;;;;14.71;77.06;101000.72;5056514;28;46093;-46
2022/11/07 09:09:35;;;;;;;;;10.00;3.00;;;;;14.71;77.01;100999.88;5056521;28;45433;-48
2022/11/07 09:12:01;;;;;;;;;3.75;2.75;;;;;14.71;76.82;101014.09;5056836;28;45243;-48
2022/11/07 09:14:27;;;;;;;;;6.00;2.00;;;;;14.71;76.94;101019.47;5056759;28;45514;-45
2022/11/07 09:16:52;;;;;;;;;3.00;2.50;;;;;14.68;76.88;101014.44;5056463;28;46228;-48
2022/11/07 09:19:17;;;;;;;;;3.25;2.75;;;;;14.68;77.00;101011.75;5056455;28;45490;-47
2022/11/07 09:21:44;;;;;;;;;1.25;1.00;;;;;14.69;77.06;101012.59;5056653;28;45491;-46
2022/11/07 09:24:09;;;;;;;;;4.33;2.67;;;;;14.67;77.01;101004.72;5057231;28;45492;-47
2022/11/07 09:26:35;;;;;;;;;2.00;2.00;;;;;14.71;77.19;101008.75;5059740;28;46226;-46
2022/11/07 09:29:00;;;;;;;;;5.00;2.00;;;;;14.77;76.96;101009.06;5059855;28;45204;-48
2022/11/07 09:31:25;;;;;;;;;2.50;2.00;;;;;14.80;77.09;101006.06;5059937;28;45611;-44
2022/11/07 09:33:51;;;;;;;;;3.00;1.00;;;;;14.91;76.69;101008.38;5060164;28;45385;-46
2022/11/07 09:36:16;;;;;;;;;4.25;2.25;;;;;14.96;76.40;101004.22;5059604;28;47134;-49
2022/11/07 09:38:42;;;;;;;;;1.25;1.25;;;;;15.05;76.46;101005.03;5059775;28;45449;-49
2022/11/07 09:41:50;;;;;;;;;4.50;2.00;;;;;15.10;75.85;101009.88;5059888;28;45414;-45
2022/11/07 09:44:30;;;;;;;;;5.75;2.25;;;;;15.09;75.74;101006.38;5059636;28;45343;-48
2022/11/07 09:47:08;;;;;;;;;0.50;0.00;;;;;15.14;75.48;101017.41;5059400;28;47653;-47
2022/11/07 09:49:45;;;;;;;;;2.00;1.75;;;;;15.13;75.48;101013.06;5059383;28;45308;-50
2022/11/07 09:52:22;;;;;;;;;4.00;3.00;;;;;15.21;75.25;101017.56;5059639;28;45298;-49
2022/11/07 09:54:55;;;;;;;;;5.75;1.50;;;;;15.24;74.99;101009.19;5059616;28;45362;-47
2022/11/07 09:57:22;;;;;;;;;4.00;2.00;;;;;15.20;74.73;100997.13;5059215;28;45575;-50
2022/11/07 09:59:54;;;;;;;;;6.75;2.00;;;;;15.25;75.14;101004.66;5057999;28;45325;-47
2022/11/07 10:02:26;;;;;;;;;3.75;2.75;;;;;15.26;74.78;101017.06;5059382;28;45480;-45
2022/11/07 10:04:58;;;;;;;;;3.25;2.50;;;;;15.25;74.61;101015.38;5059342;28;45466;-45
2022/11/07 10:08:05;;;;;;;;;1.00;1.00;;;;;15.26;74.99;101009.88;5058703;28;45772;-45
2022/11/07 10:10:50;;;;;;;;;3.00;1.00;;;;;15.25;75.00;101018.88;5048214;28;45236;-47
2022/11/07 10:13:39;;;;;;;;;4.75;3.25;;;;;15.29;74.66;101022.06;5059284;28;45391;-49
2022/11/07 10:16:47;;;;;;;;;3.75;2.00;;;;;15.29;74.77;101030.09;5059189;28;45325;-45
2022/11/07 10:19:40;;;;;;;;;5.00;1.75;;;;;15.33;74.50;101026.91;5058633;28;46094;-48
2022/11/07 10:22:24;;;;;;;;;6.00;1.50;;;;;15.40;74.49;101013.69;5048783;28;45406;-44
2022/11/07 10:25:20;;;;;;;;;3.25;2.00;;;;;15.35;74.58;101006.16;5059275;28;45329;-42
2022/11/07 10:27:59;;;;;;;;;1.00;1.00;;;;;15.44;73.94;101015.00;4977676;28;45406;-48
2022/11/07 10:30:24;;;;;;;;;3.25;2.75;;;;;15.45;74.03;101012.16;4977001;28;48159;-44
2022/11/07 10:33:04;;;;;;;;;7.25;1.50;;;;;15.52;74.26;101006.13;4977078;28;45350;-45
2022/11/07 10:35:33;;;;;;;;;3.75;2.75;;;;;15.58;73.80;101002.72;4976734;28;45536;-47
2022/11/07 10:38:01;;;;;;;;;3.00;3.00;;;;;15.60;73.71;100987.31;4977383;28;45375;-49
2022/11/07 10:40:34;;;;;;;;;4.25;3.00;;;;;15.76;73.49;100997.16;4977033;28;45978;-46
2022/11/07 10:43:02;;;;;;;;;4.00;2.25;;;;;15.80;73.23;101006.53;4976995;28;45272;-47
2022/11/07 10:45:28;;;;;;;;;2.75;2.75;;;;;15.82;72.70;100991.94;4977070;28;45481;-45
2022/11/07 10:47:59;;;;;;;;;6.00;2.00;;;;;15.77;72.68;100993.47;4977013;28;45254;-49
2022/11/07 10:50:25;;;;;;;;;4.00;2.00;;;;;15.85;72.65;100991.59;4976762;28;46576;-49
2022/11/07 10:53:04;;;;;;;;;2.75;1.00;;;;;15.86;72.66;100997.78;4960816;28;45383;-45
2022/11/07 10:55:42;;;;;;;;;2.25;2.25;;;;;15.87;72.62;100991.41;4976997;28;45398;-46
2022/11/07 10:58:14;;;;;;;;;2.50;2.50;;;;;15.90;72.44;101007.16;4977113;28;45488;-45
2022/11/07 11:00:42;;;;;;;;;6.25;1.25;;;;;15.88;72.40;101003.81;4976868;28;47000;-44
2022/11/07 11:03:26;;;;;;;;;1.50;1.00;;;;;15.87;72.30;101000.28;4983475;28;45529;-51
2022/11/07 11:05:52;;;;;;;;;4.00;1.00;;;;;15.91;72.52;101000.78;5058239;28;45323;-47
2022/11/07 11:08:20;;;;;;;;;6.00;3.00;;;;;15.90;72.37;101005.31;5058593;28;45255;-49
2022/11/07 11:10:47;;;;;;;;;8.25;2.00;;;;;15.93;72.25;101009.50;5058481;28;46208;-47
2022/11/07 11:13:33;;;;;;;;;1.50;1.00;;;;;15.96;72.46;101003.75;5058219;28;45368;-48
2022/11/07 11:16:20;;;;;;;;;4.25;2.00;;;;;16.01;72.38;100996.03;5058247;28;45388;-41
2022/11/07 11:18:50;;;;;;;;;4.25;3.00;;;;;16.20;72.09;100989.38;5058437;28;45311;-48
2022/11/07 11:21:16;;;;;;;;;3.25;3.25;;;;;16.34;71.50;100985.09;5056495;28;47416;-43
2022/11/07 11:23:43;;;;;;;;;2.75;2.75;;;;;16.39;70.90;100988.06;5058208;28;45506;-47
2022/11/07 11:26:27;;;;;;;;;7.00;2.25;;;;;16.44;70.83;100985.72;5058064;28;45405;-50
2022/11/07 11:29:11;;;;;;;;;5.75;2.25;;;;;16.45;70.42;100974.78;5056727;28;45486;-50
2022/11/07 11:31:44;;;;;;;;;5.00;4.00;;;;;16.49;70.47;100994.06;5057737;28;46449;-46
2022/11/07 11:34:18;;;;;;;;;4.25;2.00;;;;;16.49;70.80;100980.63;5058009;28;45217;-46
2022/11/07 11:36:52;;;;;;;;;1.50;1.00;;;;;16.45;69.94;100992.75;5057878;28;45426;-47
2022/11/07 11:40:08;;;;;;;;;4.50;3.25;;;;;16.62;69.67;100988.09;5058203;28;45404;-47